sensor_id;sensor_type;location;lat;lon;timestamp;P1;durP1;ratioP1;P2;durP2;ratioP2
70406;SDS011;57821;52.202;0.154;2023-11-19T00:02:14;33.30;;;6.07;;
70406;SDS011;57821;52.202;0.154;2023-11-19T00:05:02;36.67;;;6.82;;
70406;SDS011;57821;52.202;0.154;2023-11-19T00:07:49;39.53;;;6.57;;
70406;SDS011;57821;52.202;0.154;2023-11-19T00:10:36;42.00;;;5.78;;
70406;SDS011;57821;52.202;0.154;2023-11-19T00:13:23;28.23;;;4.93;;
70406;SDS011;57821;52.202;0.154;2023-11-19T00:16:10;28.67;;;4.82;;
70406;SDS011;57821;52.202;0.154;2023-11-19T00:18:57;25.42;;;5.15;;
70406;SDS011;57821;52.202;0.154;2023-11-19T00:21:44;31.08;;;5.72;;
70406;SDS011;57821;52.202;0.154;2023-11-19T00:24:32;32.85;;;7.40;;
70406;SDS011;57821;52.202;0.154;2023-11-19T00:27:19;42.08;;;6.43;;
70406;SDS011;57821;52.202;0.154;2023-11-19T00:30:07;33.88;;;5.55;;
70406;SDS011;57821;52.202;0.154;2023-11-19T00:32:57;35.65;;;5.88;;
70406;SDS011;57821;52.202;0.154;2023-11-19T00:35:44;36.58;;;6.75;;
70406;SDS011;57821;52.202;0.154;2023-11-19T00:38:31;34.55;;;5.30;;
70406;SDS011;57821;52.202;0.154;2023-11-19T00:41:18;37.50;;;7.50;;
70406;SDS011;57821;52.202;0.154;2023-11-19T00:44:05;39.60;;;6.07;;
70406;SDS011;57821;52.202;0.154;2023-11-19T00:46:52;39.20;;;6.72;;
70406;SDS011;57821;52.202;0.154;2023-11-19T00:49:39;30.63;;;5.45;;
70406;SDS011;57821;52.202;0.154;2023-11-19T00:52:27;36.63;;;5.90;;
70406;SDS011;57821;52.202;0.154;2023-11-19T00:55:14;30.42;;;5.22;;
70406;SDS011;57821;52.202;0.154;2023-11-19T00:58:01;41.33;;;5.82;;
70406;SDS011;57821;52.202;0.154;2023-11-19T01:00:49;33.83;;;5.80;;
70406;SDS011;57821;52.202;0.154;2023-11-19T01:03:36;28.83;;;4.90;;
70406;SDS011;57821;52.202;0.154;2023-11-19T01:06:27;30.58;;;4.85;;
70406;SDS011;57821;52.202;0.154;2023-11-19T01:09:15;34.33;;;5.47;;
70406;SDS011;57821;52.202;0.154;2023-11-19T01:12:02;34.65;;;6.97;;
70406;SDS011;57821;52.202;0.154;2023-11-19T01:14:49;35.20;;;5.13;;
70406;SDS011;57821;52.202;0.154;2023-11-19T01:17:37;33.42;;;6.55;;
70406;SDS011;57821;52.202;0.154;2023-11-19T01:20:24;31.85;;;5.65;;
70406;SDS011;57821;52.202;0.154;2023-11-19T01:23:14;31.08;;;5.63;;
70406;SDS011;57821;52.202;0.154;2023-11-19T01:26:01;31.23;;;6.20;;
70406;SDS011;57821;52.202;0.154;2023-11-19T01:28:48;33.08;;;7.00;;
70406;SDS011;57821;52.202;0.154;2023-11-19T01:31:38;40.78;;;5.53;;
70406;SDS011;57821;52.202;0.154;2023-11-19T01:34:26;30.42;;;5.25;;
70406;SDS011;57821;52.202;0.154;2023-11-19T01:37:13;33.35;;;5.53;;
70406;SDS011;57821;52.202;0.154;2023-11-19T01:40:01;32.15;;;5.13;;
70406;SDS011;57821;52.202;0.154;2023-11-19T01:42:49;30.98;;;5.38;;
70406;SDS011;57821;52.202;0.154;2023-11-19T01:45:36;45.00;;;6.50;;
70406;SDS011;57821;52.202;0.154;2023-11-19T01:48:25;34.03;;;7.22;;
70406;SDS011;57821;52.202;0.154;2023-11-19T01:51:12;33.90;;;4.90;;
70406;SDS011;57821;52.202;0.154;2023-11-19T01:54:03;33.40;;;5.38;;
70406;SDS011;57821;52.202;0.154;2023-11-19T01:56:50;31.95;;;5.43;;
70406;SDS011;57821;52.202;0.154;2023-11-19T01:59:40;30.00;;;4.88;;
70406;SDS011;57821;52.202;0.154;2023-11-19T02:02:28;29.73;;;5.43;;
70406;SDS011;57821;52.202;0.154;2023-11-19T02:05:16;28.88;;;4.90;;
70406;SDS011;57821;52.202;0.154;2023-11-19T02:08:04;27.15;;;5.10;;
70406;SDS011;57821;52.202;0.154;2023-11-19T02:10:51;32.92;;;5.78;;
70406;SDS011;57821;52.202;0.154;2023-11-19T02:13:38;35.65;;;5.65;;
70406;SDS011;57821;52.202;0.154;2023-11-19T02:16:27;41.08;;;5.82;;
70406;SDS011;57821;52.202;0.154;2023-11-19T02:19:15;32.90;;;5.20;;
70406;SDS011;57821;52.202;0.154;2023-11-19T02:22:02;34.05;;;6.00;;
70406;SDS011;57821;52.202;0.154;2023-11-19T02:24:51;36.45;;;5.82;;
70406;SDS011;57821;52.202;0.154;2023-11-19T02:27:51;35.53;;;5.57;;
70406;SDS011;57821;52.202;0.154;2023-11-19T02:30:44;38.40;;;6.05;;
70406;SDS011;57821;52.202;0.154;2023-11-19T02:33:31;37.05;;;7.70;;
70406;SDS011;57821;52.202;0.154;2023-11-19T02:36:18;34.55;;;5.22;;
70406;SDS011;57821;52.202;0.154;2023-11-19T02:39:05;33.35;;;5.07;;
70406;SDS011;57821;52.202;0.154;2023-11-19T02:41:57;33.00;;;6.18;;
70406;SDS011;57821;52.202;0.154;2023-11-19T02:44:44;37.22;;;5.93;;
70406;SDS011;57821;52.202;0.154;2023-11-19T02:47:32;33.08;;;5.65;;
70406;SDS011;57821;52.202;0.154;2023-11-19T02:50:20;32.88;;;6.95;;
70406;SDS011;57821;52.202;0.154;2023-11-19T02:53:16;37.42;;;5.82;;
70406;SDS011;57821;52.202;0.154;2023-11-19T02:56:04;30.50;;;5.57;;
70406;SDS011;57821;52.202;0.154;2023-11-19T02:59:12;29.75;;;4.30;;
70406;SDS011;57821;52.202;0.154;2023-11-19T03:02:13;29.57;;;5.33;;
70406;SDS011;57821;52.202;0.154;2023-11-19T03:05:03;32.45;;;5.40;;
70406;SDS011;57821;52.202;0.154;2023-11-19T03:07:50;33.85;;;6.22;;
70406;SDS011;57821;52.202;0.154;2023-11-19T03:10:38;34.55;;;5.05;;
70406;SDS011;57821;52.202;0.154;2023-11-19T03:13:25;28.55;;;5.95;;
70406;SDS011;57821;52.202;0.154;2023-11-19T03:16:13;35.35;;;5.53;;
70406;SDS011;57821;52.202;0.154;2023-11-19T03:19:00;38.35;;;5.05;;
70406;SDS011;57821;52.202;0.154;2023-11-19T03:21:48;39.33;;;6.10;;
70406;SDS011;57821;52.202;0.154;2023-11-19T03:24:35;30.83;;;6.22;;
70406;SDS011;57821;52.202;0.154;2023-11-19T03:27:22;32.22;;;5.97;;
70406;SDS011;57821;52.202;0.154;2023-11-19T03:30:09;35.13;;;6.10;;
70406;SDS011;57821;52.202;0.154;2023-11-19T03:32:57;33.55;;;5.43;;
70406;SDS011;57821;52.202;0.154;2023-11-19T03:35:44;37.38;;;5.35;;
70406;SDS011;57821;52.202;0.154;2023-11-19T03:38:32;39.33;;;5.57;;
70406;SDS011;57821;52.202;0.154;2023-11-19T03:41:19;28.73;;;4.32;;
70406;SDS011;57821;52.202;0.154;2023-11-19T03:44:07;27.70;;;5.25;;
70406;SDS011;57821;52.202;0.154;2023-11-19T03:46:54;38.97;;;5.82;;
70406;SDS011;57821;52.202;0.154;2023-11-19T03:49:41;29.33;;;5.53;;
70406;SDS011;57821;52.202;0.154;2023-11-19T03:52:28;33.22;;;5.43;;
70406;SDS011;57821;52.202;0.154;2023-11-19T03:55:16;27.70;;;5.30;;
70406;SDS011;57821;52.202;0.154;2023-11-19T03:58:03;32.53;;;5.65;;
70406;SDS011;57821;52.202;0.154;2023-11-19T04:00:51;28.98;;;5.00;;
70406;SDS011;57821;52.202;0.154;2023-11-19T04:03:38;30.33;;;5.20;;
70406;SDS011;57821;52.202;0.154;2023-11-19T04:06:36;39.15;;;6.25;;
70406;SDS011;57821;52.202;0.154;2023-11-19T04:09:23;41.83;;;5.68;;
70406;SDS011;57821;52.202;0.154;2023-11-19T04:12:10;30.73;;;4.75;;
70406;SDS011;57821;52.202;0.154;2023-11-19T04:14:57;28.38;;;5.32;;
70406;SDS011;57821;52.202;0.154;2023-11-19T04:17:47;35.92;;;5.07;;
70406;SDS011;57821;52.202;0.154;2023-11-19T04:20:35;33.00;;;5.55;;
70406;SDS011;57821;52.202;0.154;2023-11-19T04:23:23;28.88;;;5.05;;
70406;SDS011;57821;52.202;0.154;2023-11-19T04:26:11;26.52;;;4.38;;
70406;SDS011;57821;52.202;0.154;2023-11-19T04:28:58;28.20;;;4.53;;
70406;SDS011;57821;52.202;0.154;2023-11-19T04:31:45;29.70;;;5.00;;
70406;SDS011;57821;52.202;0.154;2023-11-19T04:34:32;35.92;;;5.65;;
70406;SDS011;57821;52.202;0.154;2023-11-19T04:37:20;32.78;;;5.13;;
70406;SDS011;57821;52.202;0.154;2023-11-19T04:40:07;34.45;;;5.35;;
70406;SDS011;57821;52.202;0.154;2023-11-19T04:42:54;36.08;;;6.05;;
70406;SDS011;57821;52.202;0.154;2023-11-19T04:45:41;32.85;;;4.97;;
70406;SDS011;57821;52.202;0.154;2023-11-19T04:48:28;31.17;;;5.50;;
70406;SDS011;57821;52.202;0.154;2023-11-19T04:51:28;35.33;;;5.28;;
70406;SDS011;57821;52.202;0.154;2023-11-19T04:54:15;30.13;;;4.50;;
70406;SDS011;57821;52.202;0.154;2023-11-19T04:57:02;29.80;;;5.82;;
70406;SDS011;57821;52.202;0.154;2023-11-19T04:59:49;27.30;;;4.70;;
70406;SDS011;57821;52.202;0.154;2023-11-19T05:02:36;35.75;;;5.43;;
70406;SDS011;57821;52.202;0.154;2023-11-19T05:05:24;24.33;;;4.70;;
70406;SDS011;57821;52.202;0.154;2023-11-19T05:08:11;27.63;;;4.50;;
70406;SDS011;57821;52.202;0.154;2023-11-19T05:10:58;31.92;;;6.35;;
70406;SDS011;57821;52.202;0.154;2023-11-19T05:13:46;32.08;;;5.75;;
70406;SDS011;57821;52.202;0.154;2023-11-19T05:16:32;34.97;;;5.05;;
70406;SDS011;57821;52.202;0.154;2023-11-19T05:19:20;27.45;;;5.28;;
70406;SDS011;57821;52.202;0.154;2023-11-19T05:22:07;19.48;;;4.18;;
70406;SDS011;57821;52.202;0.154;2023-11-19T05:24:54;22.75;;;4.05;;
70406;SDS011;57821;52.202;0.154;2023-11-19T05:27:42;28.70;;;3.67;;
70406;SDS011;57821;52.202;0.154;2023-11-19T05:30:29;31.33;;;4.50;;
70406;SDS011;57821;52.202;0.154;2023-11-19T05:33:16;29.25;;;4.82;;
70406;SDS011;57821;52.202;0.154;2023-11-19T05:36:04;27.60;;;4.68;;
70406;SDS011;57821;52.202;0.154;2023-11-19T05:38:51;37.50;;;5.53;;
70406;SDS011;57821;52.202;0.154;2023-11-19T05:41:38;32.03;;;4.85;;
70406;SDS011;57821;52.202;0.154;2023-11-19T05:44:26;19.58;;;4.32;;
70406;SDS011;57821;52.202;0.154;2023-11-19T05:47:13;26.20;;;4.47;;
70406;SDS011;57821;52.202;0.154;2023-11-19T05:50:00;30.20;;;4.93;;
70406;SDS011;57821;52.202;0.154;2023-11-19T05:52:47;24.92;;;5.50;;
70406;SDS011;57821;52.202;0.154;2023-11-19T05:55:34;27.60;;;4.75;;
70406;SDS011;57821;52.202;0.154;2023-11-19T05:58:25;35.35;;;4.57;;
70406;SDS011;57821;52.202;0.154;2023-11-19T06:01:13;33.78;;;5.93;;
70406;SDS011;57821;52.202;0.154;2023-11-19T06:04:00;25.20;;;5.07;;
70406;SDS011;57821;52.202;0.154;2023-11-19T06:06:48;28.67;;;4.88;;
70406;SDS011;57821;52.202;0.154;2023-11-19T06:09:35;30.25;;;5.00;;
70406;SDS011;57821;52.202;0.154;2023-11-19T06:12:21;29.20;;;4.78;;
70406;SDS011;57821;52.202;0.154;2023-11-19T06:15:08;30.63;;;4.55;;
70406;SDS011;57821;52.202;0.154;2023-11-19T06:17:56;28.98;;;5.30;;
70406;SDS011;57821;52.202;0.154;2023-11-19T06:20:45;27.40;;;4.53;;
70406;SDS011;57821;52.202;0.154;2023-11-19T06:23:32;31.98;;;3.95;;
70406;SDS011;57821;52.202;0.154;2023-11-19T06:26:19;30.05;;;4.80;;
70406;SDS011;57821;52.202;0.154;2023-11-19T06:29:06;21.27;;;3.65;;
70406;SDS011;57821;52.202;0.154;2023-11-19T06:31:53;28.88;;;4.68;;
70406;SDS011;57821;52.202;0.154;2023-11-19T06:34:41;20.00;;;4.35;;
70406;SDS011;57821;52.202;0.154;2023-11-19T06:37:28;27.80;;;4.55;;
70406;SDS011;57821;52.202;0.154;2023-11-19T06:40:15;25.98;;;3.97;;
70406;SDS011;57821;52.202;0.154;2023-11-19T06:43:03;33.33;;;4.60;;
70406;SDS011;57821;52.202;0.154;2023-11-19T06:45:51;33.80;;;5.30;;
70406;SDS011;57821;52.202;0.154;2023-11-19T06:48:38;22.98;;;4.00;;
70406;SDS011;57821;52.202;0.154;2023-11-19T06:51:25;33.60;;;5.43;;
70406;SDS011;57821;52.202;0.154;2023-11-19T06:54:11;28.45;;;4.60;;
70406;SDS011;57821;52.202;0.154;2023-11-19T06:56:59;21.88;;;3.67;;
70406;SDS011;57821;52.202;0.154;2023-11-19T06:59:45;18.38;;;3.80;;
70406;SDS011;57821;52.202;0.154;2023-11-19T07:02:32;26.35;;;3.72;;
70406;SDS011;57821;52.202;0.154;2023-11-19T07:05:20;27.05;;;4.60;;
70406;SDS011;57821;52.202;0.154;2023-11-19T07:08:07;27.75;;;5.38;;
70406;SDS011;57821;52.202;0.154;2023-11-19T07:10:54;24.25;;;3.95;;
70406;SDS011;57821;52.202;0.154;2023-11-19T07:13:41;31.83;;;4.32;;
70406;SDS011;57821;52.202;0.154;2023-11-19T07:16:28;24.77;;;3.50;;
70406;SDS011;57821;52.202;0.154;2023-11-19T07:19:15;18.58;;;4.22;;
70406;SDS011;57821;52.202;0.154;2023-11-19T07:22:02;22.00;;;3.45;;
70406;SDS011;57821;52.202;0.154;2023-11-19T07:24:49;18.63;;;3.55;;
70406;SDS011;57821;52.202;0.154;2023-11-19T07:27:37;26.88;;;4.10;;
70406;SDS011;57821;52.202;0.154;2023-11-19T07:30:25;29.13;;;3.97;;
70406;SDS011;57821;52.202;0.154;2023-11-19T07:33:12;27.70;;;6.00;;
70406;SDS011;57821;52.202;0.154;2023-11-19T07:36:00;22.73;;;3.88;;
70406;SDS011;57821;52.202;0.154;2023-11-19T07:38:47;29.48;;;3.90;;
70406;SDS011;57821;52.202;0.154;2023-11-19T07:41:34;26.30;;;4.38;;
70406;SDS011;57821;52.202;0.154;2023-11-19T07:44:24;22.65;;;3.92;;
70406;SDS011;57821;52.202;0.154;2023-11-19T07:47:12;24.17;;;4.00;;
70406;SDS011;57821;52.202;0.154;2023-11-19T07:49:59;26.55;;;4.40;;
70406;SDS011;57821;52.202;0.154;2023-11-19T07:52:46;25.20;;;3.60;;
70406;SDS011;57821;52.202;0.154;2023-11-19T07:55:33;26.23;;;5.32;;
70406;SDS011;57821;52.202;0.154;2023-11-19T07:58:21;24.63;;;4.13;;
70406;SDS011;57821;52.202;0.154;2023-11-19T08:01:08;23.90;;;3.80;;
70406;SDS011;57821;52.202;0.154;2023-11-19T08:03:55;21.00;;;3.72;;
70406;SDS011;57821;52.202;0.154;2023-11-19T08:06:46;28.90;;;4.78;;
70406;SDS011;57821;52.202;0.154;2023-11-19T08:09:32;21.25;;;3.55;;
70406;SDS011;57821;52.202;0.154;2023-11-19T08:12:20;22.85;;;4.15;;
70406;SDS011;57821;52.202;0.154;2023-11-19T08:15:07;19.20;;;3.30;;
70406;SDS011;57821;52.202;0.154;2023-11-19T08:17:54;30.08;;;4.35;;
70406;SDS011;57821;52.202;0.154;2023-11-19T08:20:41;25.52;;;3.72;;
70406;SDS011;57821;52.202;0.154;2023-11-19T08:23:31;28.33;;;4.15;;
70406;SDS011;57821;52.202;0.154;2023-11-19T08:26:18;32.58;;;4.70;;
70406;SDS011;57821;52.202;0.154;2023-11-19T08:29:07;33.95;;;4.72;;
70406;SDS011;57821;52.202;0.154;2023-11-19T08:31:55;34.78;;;5.70;;
70406;SDS011;57821;52.202;0.154;2023-11-19T08:34:42;28.85;;;4.90;;
70406;SDS011;57821;52.202;0.154;2023-11-19T08:37:29;24.92;;;4.50;;
70406;SDS011;57821;52.202;0.154;2023-11-19T08:40:16;21.05;;;3.90;;
70406;SDS011;57821;52.202;0.154;2023-11-19T08:43:04;24.75;;;5.13;;
70406;SDS011;57821;52.202;0.154;2023-11-19T08:45:51;28.92;;;4.13;;
70406;SDS011;57821;52.202;0.154;2023-11-19T08:48:38;30.88;;;4.80;;
70406;SDS011;57821;52.202;0.154;2023-11-19T08:51:25;22.60;;;4.57;;
70406;SDS011;57821;52.202;0.154;2023-11-19T08:54:12;32.97;;;4.97;;
70406;SDS011;57821;52.202;0.154;2023-11-19T08:56:59;24.98;;;3.97;;
70406;SDS011;57821;52.202;0.154;2023-11-19T08:59:47;22.67;;;4.70;;
70406;SDS011;57821;52.202;0.154;2023-11-19T09:02:37;25.15;;;3.58;;
70406;SDS011;57821;52.202;0.154;2023-11-19T09:05:24;19.75;;;3.75;;
70406;SDS011;57821;52.202;0.154;2023-11-19T09:08:11;22.23;;;4.47;;
70406;SDS011;57821;52.202;0.154;2023-11-19T09:10:58;22.48;;;4.35;;
70406;SDS011;57821;52.202;0.154;2023-11-19T09:13:45;16.33;;;3.10;;
70406;SDS011;57821;52.202;0.154;2023-11-19T09:16:32;19.38;;;3.75;;
70406;SDS011;57821;52.202;0.154;2023-11-19T09:19:19;19.80;;;3.42;;
70406;SDS011;57821;52.202;0.154;2023-11-19T09:22:07;22.92;;;3.65;;
70406;SDS011;57821;52.202;0.154;2023-11-19T09:24:54;18.98;;;3.60;;
70406;SDS011;57821;52.202;0.154;2023-11-19T09:27:41;21.05;;;3.75;;
70406;SDS011;57821;52.202;0.154;2023-11-19T09:30:28;18.42;;;3.10;;
70406;SDS011;57821;52.202;0.154;2023-11-19T09:33:15;19.98;;;3.40;;
70406;SDS011;57821;52.202;0.154;2023-11-19T09:36:02;17.75;;;4.13;;
70406;SDS011;57821;52.202;0.154;2023-11-19T09:38:50;23.45;;;3.97;;
70406;SDS011;57821;52.202;0.154;2023-11-19T09:41:36;24.05;;;3.60;;
70406;SDS011;57821;52.202;0.154;2023-11-19T09:44:24;23.60;;;4.15;;
70406;SDS011;57821;52.202;0.154;2023-11-19T09:47:14;18.63;;;3.47;;
70406;SDS011;57821;52.202;0.154;2023-11-19T09:50:03;22.67;;;3.70;;
70406;SDS011;57821;52.202;0.154;2023-11-19T09:52:51;23.45;;;3.72;;
70406;SDS011;57821;52.202;0.154;2023-11-19T09:55:38;17.25;;;3.75;;
70406;SDS011;57821;52.202;0.154;2023-11-19T09:58:25;17.30;;;3.63;;
70406;SDS011;57821;52.202;0.154;2023-11-19T10:01:12;18.58;;;4.03;;
70406;SDS011;57821;52.202;0.154;2023-11-19T10:04:03;19.67;;;3.50;;
70406;SDS011;57821;52.202;0.154;2023-11-19T10:06:53;15.10;;;3.25;;
70406;SDS011;57821;52.202;0.154;2023-11-19T10:09:40;18.55;;;3.58;;
70406;SDS011;57821;52.202;0.154;2023-11-19T10:12:27;14.13;;;2.83;;
70406;SDS011;57821;52.202;0.154;2023-11-19T10:15:17;16.08;;;2.80;;
70406;SDS011;57821;52.202;0.154;2023-11-19T10:18:07;15.60;;;2.45;;
70406;SDS011;57821;52.202;0.154;2023-11-19T10:20:54;12.15;;;2.45;;
70406;SDS011;57821;52.202;0.154;2023-11-19T10:23:51;16.77;;;3.13;;
70406;SDS011;57821;52.202;0.154;2023-11-19T10:26:40;15.65;;;2.75;;
70406;SDS011;57821;52.202;0.154;2023-11-19T10:29:29;18.80;;;2.90;;
70406;SDS011;57821;52.202;0.154;2023-11-19T10:32:17;16.80;;;2.63;;
70406;SDS011;57821;52.202;0.154;2023-11-19T10:35:12;16.75;;;3.80;;
70406;SDS011;57821;52.202;0.154;2023-11-19T10:38:21;15.95;;;2.90;;
70406;SDS011;57821;52.202;0.154;2023-11-19T10:41:08;17.17;;;3.33;;
70406;SDS011;57821;52.202;0.154;2023-11-19T10:43:56;17.23;;;2.85;;
70406;SDS011;57821;52.202;0.154;2023-11-19T10:46:43;18.77;;;3.17;;
70406;SDS011;57821;52.202;0.154;2023-11-19T10:49:30;14.60;;;2.72;;
70406;SDS011;57821;52.202;0.154;2023-11-19T10:52:18;20.77;;;3.75;;
70406;SDS011;57821;52.202;0.154;2023-11-19T10:55:08;22.73;;;4.72;;
70406;SDS011;57821;52.202;0.154;2023-11-19T10:58:16;20.15;;;2.97;;
70406;SDS011;57821;52.202;0.154;2023-11-19T11:01:07;23.55;;;3.60;;
70406;SDS011;57821;52.202;0.154;2023-11-19T11:04:00;20.88;;;2.83;;
70406;SDS011;57821;52.202;0.154;2023-11-19T11:06:48;16.33;;;2.70;;
70406;SDS011;57821;52.202;0.154;2023-11-19T11:09:37;21.25;;;3.05;;
70406;SDS011;57821;52.202;0.154;2023-11-19T11:12:25;20.33;;;3.22;;
70406;SDS011;57821;52.202;0.154;2023-11-19T11:15:12;21.98;;;3.38;;
70406;SDS011;57821;52.202;0.154;2023-11-19T11:18:02;14.23;;;2.47;;
70406;SDS011;57821;52.202;0.154;2023-11-19T11:20:49;16.98;;;2.70;;
70406;SDS011;57821;52.202;0.154;2023-11-19T11:29:58;16.77;;;2.72;;
70406;SDS011;57821;52.202;0.154;2023-11-19T11:36:13;16.17;;;2.88;;
70406;SDS011;57821;52.202;0.154;2023-11-19T11:39:06;21.52;;;3.75;;
70406;SDS011;57821;52.202;0.154;2023-11-19T11:45:10;14.82;;;3.50;;
70406;SDS011;57821;52.202;0.154;2023-11-19T11:48:09;15.85;;;2.65;;
70406;SDS011;57821;52.202;0.154;2023-11-19T11:50:57;19.27;;;3.20;;
70406;SDS011;57821;52.202;0.154;2023-11-19T11:53:45;14.25;;;2.25;;
70406;SDS011;57821;52.202;0.154;2023-11-19T11:56:36;13.45;;;2.83;;
70406;SDS011;57821;52.202;0.154;2023-11-19T11:59:23;19.80;;;3.22;;
70406;SDS011;57821;52.202;0.154;2023-11-19T12:02:11;15.43;;;2.60;;
70406;SDS011;57821;52.202;0.154;2023-11-19T12:04:59;13.55;;;2.42;;
70406;SDS011;57821;52.202;0.154;2023-11-19T12:07:57;15.97;;;3.20;;
70406;SDS011;57821;52.202;0.154;2023-11-19T12:10:49;13.43;;;3.78;;
70406;SDS011;57821;52.202;0.154;2023-11-19T12:13:47;14.65;;;2.47;;
70406;SDS011;57821;52.202;0.154;2023-11-19T12:16:39;12.88;;;2.70;;
70406;SDS011;57821;52.202;0.154;2023-11-19T12:19:26;16.45;;;3.13;;
70406;SDS011;57821;52.202;0.154;2023-11-19T12:22:14;11.63;;;1.98;;
70406;SDS011;57821;52.202;0.154;2023-11-19T12:25:01;12.35;;;2.42;;
70406;SDS011;57821;52.202;0.154;2023-11-19T12:27:50;12.35;;;2.00;;
70406;SDS011;57821;52.202;0.154;2023-11-19T12:30:38;12.10;;;1.73;;
70406;SDS011;57821;52.202;0.154;2023-11-19T12:33:25;10.88;;;1.58;;
70406;SDS011;57821;52.202;0.154;2023-11-19T12:36:12;11.77;;;1.73;;
70406;SDS011;57821;52.202;0.154;2023-11-19T12:38:59;17.20;;;2.95;;
70406;SDS011;57821;52.202;0.154;2023-11-19T12:41:50;12.30;;;2.22;;
70406;SDS011;57821;52.202;0.154;2023-11-19T12:44:38;15.25;;;2.58;;
70406;SDS011;57821;52.202;0.154;2023-11-19T12:47:28;11.15;;;2.00;;
70406;SDS011;57821;52.202;0.154;2023-11-19T12:50:15;14.68;;;2.33;;
70406;SDS011;57821;52.202;0.154;2023-11-19T12:53:06;15.25;;;2.22;;
70406;SDS011;57821;52.202;0.154;2023-11-19T12:55:53;11.25;;;2.40;;
70406;SDS011;57821;52.202;0.154;2023-11-19T12:58:42;11.98;;;1.75;;
70406;SDS011;57821;52.202;0.154;2023-11-19T13:01:29;10.23;;;1.77;;
70406;SDS011;57821;52.202;0.154;2023-11-19T13:04:17;13.52;;;2.25;;
70406;SDS011;57821;52.202;0.154;2023-11-19T13:07:05;12.27;;;2.17;;
70406;SDS011;57821;52.202;0.154;2023-11-19T13:10:00;14.15;;;2.30;;
70406;SDS011;57821;52.202;0.154;2023-11-19T13:13:05;21.27;;;3.03;;
70406;SDS011;57821;52.202;0.154;2023-11-19T13:15:53;9.50;;;1.58;;
70406;SDS011;57821;52.202;0.154;2023-11-19T13:18:40;13.18;;;1.77;;
70406;SDS011;57821;52.202;0.154;2023-11-19T13:21:30;10.60;;;1.50;;
70406;SDS011;57821;52.202;0.154;2023-11-19T13:24:17;11.02;;;1.98;;
70406;SDS011;57821;52.202;0.154;2023-11-19T13:27:04;10.32;;;1.60;;
70406;SDS011;57821;52.202;0.154;2023-11-19T13:29:51;7.60;;;1.40;;
70406;SDS011;57821;52.202;0.154;2023-11-19T13:32:38;9.52;;;1.50;;
70406;SDS011;57821;52.202;0.154;2023-11-19T13:35:26;8.20;;;1.52;;
70406;SDS011;57821;52.202;0.154;2023-11-19T13:38:14;8.13;;;1.48;;
70406;SDS011;57821;52.202;0.154;2023-11-19T13:41:02;5.63;;;1.30;;
70406;SDS011;57821;52.202;0.154;2023-11-19T13:43:49;10.18;;;1.17;;
70406;SDS011;57821;52.202;0.154;2023-11-19T13:46:37;9.73;;;1.52;;
70406;SDS011;57821;52.202;0.154;2023-11-19T13:49:24;10.25;;;1.48;;
70406;SDS011;57821;52.202;0.154;2023-11-19T13:52:11;9.02;;;1.23;;
70406;SDS011;57821;52.202;0.154;2023-11-19T13:54:58;6.53;;;1.17;;
70406;SDS011;57821;52.202;0.154;2023-11-19T13:57:45;6.43;;;1.02;;
70406;SDS011;57821;52.202;0.154;2023-11-19T14:00:33;9.95;;;1.35;;
70406;SDS011;57821;52.202;0.154;2023-11-19T14:03:20;7.93;;;1.60;;
70406;SDS011;57821;52.202;0.154;2023-11-19T14:06:07;5.85;;;1.00;;
70406;SDS011;57821;52.202;0.154;2023-11-19T14:08:55;6.00;;;1.08;;
70406;SDS011;57821;52.202;0.154;2023-11-19T14:11:42;5.70;;;1.40;;
70406;SDS011;57821;52.202;0.154;2023-11-19T14:14:29;9.15;;;1.70;;
70406;SDS011;57821;52.202;0.154;2023-11-19T14:17:16;5.38;;;1.10;;
70406;SDS011;57821;52.202;0.154;2023-11-19T14:20:03;7.45;;;1.30;;
70406;SDS011;57821;52.202;0.154;2023-11-19T14:22:59;5.78;;;1.10;;
70406;SDS011;57821;52.202;0.154;2023-11-19T14:25:46;7.75;;;1.33;;
70406;SDS011;57821;52.202;0.154;2023-11-19T14:28:33;6.47;;;0.98;;
70406;SDS011;57821;52.202;0.154;2023-11-19T14:31:20;6.20;;;1.00;;
70406;SDS011;57821;52.202;0.154;2023-11-19T14:34:07;6.65;;;0.95;;
70406;SDS011;57821;52.202;0.154;2023-11-19T14:36:54;6.63;;;1.25;;
70406;SDS011;57821;52.202;0.154;2023-11-19T14:39:41;12.02;;;1.80;;
70406;SDS011;57821;52.202;0.154;2023-11-19T14:42:32;5.82;;;1.08;;
70406;SDS011;57821;52.202;0.154;2023-11-19T14:45:19;7.45;;;1.17;;
70406;SDS011;57821;52.202;0.154;2023-11-19T14:48:06;5.82;;;1.10;;
70406;SDS011;57821;52.202;0.154;2023-11-19T14:50:53;6.80;;;1.02;;
70406;SDS011;57821;52.202;0.154;2023-11-19T14:53:40;5.57;;;1.15;;
70406;SDS011;57821;52.202;0.154;2023-11-19T14:56:27;6.68;;;1.20;;
70406;SDS011;57821;52.202;0.154;2023-11-19T14:59:14;5.05;;;1.08;;
70406;SDS011;57821;52.202;0.154;2023-11-19T15:02:01;6.25;;;1.08;;
70406;SDS011;57821;52.202;0.154;2023-11-19T15:04:49;4.20;;;0.80;;
70406;SDS011;57821;52.202;0.154;2023-11-19T15:07:36;8.95;;;1.35;;
70406;SDS011;57821;52.202;0.154;2023-11-19T15:10:24;8.40;;;1.65;;
70406;SDS011;57821;52.202;0.154;2023-11-19T15:13:12;5.18;;;0.93;;
70406;SDS011;57821;52.202;0.154;2023-11-19T15:15:59;4.82;;;1.00;;
70406;SDS011;57821;52.202;0.154;2023-11-19T15:18:46;4.50;;;0.80;;
70406;SDS011;57821;52.202;0.154;2023-11-19T15:21:33;5.70;;;1.05;;
70406;SDS011;57821;52.202;0.154;2023-11-19T15:24:20;5.80;;;1.00;;
70406;SDS011;57821;52.202;0.154;2023-11-19T15:27:07;5.53;;;1.02;;
70406;SDS011;57821;52.202;0.154;2023-11-19T15:30:00;6.20;;;0.95;;
70406;SDS011;57821;52.202;0.154;2023-11-19T15:32:48;5.97;;;1.20;;
70406;SDS011;57821;52.202;0.154;2023-11-19T15:35:35;6.20;;;1.33;;
70406;SDS011;57821;52.202;0.154;2023-11-19T15:38:22;4.93;;;1.42;;
70406;SDS011;57821;52.202;0.154;2023-11-19T15:41:09;5.82;;;1.10;;
70406;SDS011;57821;52.202;0.154;2023-11-19T15:43:59;7.63;;;1.00;;
70406;SDS011;57821;52.202;0.154;2023-11-19T15:46:46;9.57;;;1.50;;
70406;SDS011;57821;52.202;0.154;2023-11-19T15:49:33;7.40;;;1.52;;
70406;SDS011;57821;52.202;0.154;2023-11-19T15:52:20;6.32;;;1.40;;
70406;SDS011;57821;52.202;0.154;2023-11-19T15:55:07;9.10;;;1.70;;
70406;SDS011;57821;52.202;0.154;2023-11-19T15:57:55;10.73;;;1.20;;
70406;SDS011;57821;52.202;0.154;2023-11-19T16:00:41;9.45;;;1.80;;
70406;SDS011;57821;52.202;0.154;2023-11-19T16:03:32;8.63;;;1.63;;
70406;SDS011;57821;52.202;0.154;2023-11-19T16:06:38;11.20;;;1.77;;
70406;SDS011;57821;52.202;0.154;2023-11-19T16:09:25;10.90;;;1.83;;
70406;SDS011;57821;52.202;0.154;2023-11-19T16:12:14;9.65;;;1.63;;
70406;SDS011;57821;52.202;0.154;2023-11-19T16:15:01;10.35;;;2.38;;
70406;SDS011;57821;52.202;0.154;2023-11-19T16:17:48;13.73;;;1.95;;
70406;SDS011;57821;52.202;0.154;2023-11-19T16:20:35;13.45;;;2.25;;
70406;SDS011;57821;52.202;0.154;2023-11-19T16:23:22;11.90;;;2.55;;
70406;SDS011;57821;52.202;0.154;2023-11-19T16:26:09;11.68;;;1.80;;
70406;SDS011;57821;52.202;0.154;2023-11-19T16:28:57;15.43;;;2.72;;
70406;SDS011;57821;52.202;0.154;2023-11-19T16:31:44;12.52;;;3.47;;
70406;SDS011;57821;52.202;0.154;2023-11-19T16:34:31;16.38;;;2.53;;
70406;SDS011;57821;52.202;0.154;2023-11-19T16:37:02;10.88;;;2.88;;
70406;SDS011;57821;52.202;0.154;2023-11-19T16:39:28;13.20;;;2.80;;
70406;SDS011;57821;52.202;0.154;2023-11-19T16:41:56;15.10;;;3.88;;
70406;SDS011;57821;52.202;0.154;2023-11-19T16:44:23;16.95;;;3.63;;
70406;SDS011;57821;52.202;0.154;2023-11-19T16:46:50;13.77;;;2.88;;
70406;SDS011;57821;52.202;0.154;2023-11-19T16:49:17;21.67;;;3.85;;
70406;SDS011;57821;52.202;0.154;2023-11-19T16:51:44;22.10;;;3.33;;